Time;durP1;ratioP1;P1;durP2;ratioP2;P2;SDS_P1;SDS_P2;PMS_P1;PMS_P2;Temp;Humidity;BMP_temperature;BMP_pressure;BME280_temperature;BME280_humidity;BME280_pressure;Samples;Min_cycle;Max_cycle;Signal;HPM_P1;HPM_P2
2021/06/26 00:00:11;;;;;;;49.25;35.45;;;;;;;13.34;100.00;101772.88;5074382;28;20032;-71
2021/06/26 00:02:37;;;;;;;50.13;35.60;;;;;;;13.36;100.00;101768.44;5074644;28;20020;-68
2021/06/26 00:05:03;;;;;;;48.35;35.53;;;;;;;13.41;100.00;101771.13;5074854;28;20352;-68
2021/06/26 00:07:29;;;;;;;48.85;35.47;;;;;;;13.45;100.00;101770.28;5074230;28;20070;-67
2021/06/26 00:09:54;;;;;;;53.33;37.65;;;;;;;13.45;100.00;101769.41;5074167;28;20024;-70
2021/06/26 00:12:19;;;;;;;54.28;39.65;;;;;;;13.41;100.00;101763.16;5073059;28;20025;-64
2021/06/26 00:14:45;;;;;;;52.70;37.08;;;;;;;13.46;100.00;101769.41;5074113;28;20037;-67
2021/06/26 00:17:11;;;;;;;48.78;35.95;;;;;;;13.42;100.00;101772.91;5073973;28;20024;-69
2021/06/26 00:19:37;;;;;;;51.45;37.55;;;;;;;13.37;100.00;101772.88;5074544;28;20028;-71
2021/06/26 00:22:03;;;;;;;52.53;38.65;;;;;;;13.37;100.00;101762.25;5074237;28;20513;-60
2021/06/26 00:24:29;;;;;;;60.90;42.78;;;;;;;13.34;100.00;101767.56;5074044;28;20032;-60
2021/06/26 00:26:54;;;;;;;64.07;44.20;;;;;;;13.36;100.00;101764.91;5074168;28;20426;-60
2021/06/26 00:29:19;;;;;;;59.38;43.05;;;;;;;13.36;100.00;101760.47;5073699;28;20383;-61
2021/06/26 00:31:45;;;;;;;62.15;42.63;;;;;;;13.35;100.00;101763.13;5073606;28;20036;-60
2021/06/26 00:34:10;;;;;;;62.85;44.53;;;;;;;13.34;100.00;101761.28;5073739;28;20467;-63
2021/06/26 00:36:35;;;;;;;61.00;43.92;;;;;;;13.35;100.00;101763.13;5073669;28;20036;-61
2021/06/26 00:39:01;;;;;;;63.88;45.40;;;;;;;13.41;100.00;101763.16;5073867;28;20021;-61
2021/06/26 00:41:26;;;;;;;60.05;43.40;;;;;;;13.39;100.00;101764.94;5073844;28;20024;-61
2021/06/26 00:43:51;;;;;;;52.88;38.60;;;;;;;13.41;100.00;101761.41;5073396;28;20028;-61
2021/06/26 00:46:18;;;;;;;55.85;39.85;;;;;;;13.38;100.00;101760.47;5074009;28;20024;-64
2021/06/26 00:48:43;;;;;;;55.38;39.38;;;;;;;13.45;100.00;101764.97;5073226;28;20396;-63
2021/06/26 00:51:08;;;;;;;50.33;37.22;;;;;;;13.42;100.00;101760.50;5073448;28;20024;-63
2021/06/26 00:53:34;;;;;;;48.30;34.90;;;;;;;13.36;100.00;101763.13;5073441;28;20531;-64
2021/06/26 00:56:01;;;;;;;49.33;35.50;;;;;;;13.36;100.00;101768.44;5073207;28;20031;-64
2021/06/26 00:58:27;;;;;;;48.97;35.95;;;;;;;13.38;100.00;101763.13;5073552;28;20120;-63
2021/06/26 01:00:53;;;;;;;52.28;39.85;;;;;;;13.48;100.00;101770.28;5073198;28;20029;-63
2021/06/26 01:03:18;;;;;;;50.78;37.97;;;;;;;13.45;100.00;101769.41;5073184;28;20487;-63
2021/06/26 01:05:44;;;;;;;52.83;39.70;;;;;;;13.53;100.00;101775.66;5069298;28;20028;-63
2021/06/26 01:08:10;;;;;;;57.20;42.65;;;;;;;13.55;100.00;101768.56;5073371;28;20392;-62
2021/06/26 01:10:35;;;;;;;61.53;45.13;;;;;;;13.59;100.00;101767.72;5073290;28;20047;-63
2021/06/26 01:13:01;;;;;;;64.65;47.85;;;;;;;13.63;100.00;101771.28;5072975;28;20024;-63
2021/06/26 01:15:26;;;;;;;66.43;48.70;;;;;;;13.63;100.00;101773.94;5073195;28;20383;-63
2021/06/26 01:17:52;;;;;;;69.70;49.35;;;;;;;13.67;100.00;101773.94;5073181;28;20417;-62
2021/06/26 01:20:18;;;;;;;65.65;48.42;;;;;;;13.73;100.00;101775.75;5072844;28;20083;-61
2021/06/26 01:22:47;;;;;;;60.80;45.58;;;;;;;13.71;100.00;101772.22;5073263;28;20024;-63
2021/06/26 01:25:15;;;;;;;59.92;45.25;;;;;;;13.71;100.00;101777.53;5073160;28;20035;-63
2021/06/26 01:27:42;;;;;;;68.55;50.90;;;;;;;13.72;100.00;101774.88;5072811;28;20029;-62
2021/06/26 01:30:07;;;;;;;75.93;55.40;;;;;;;13.69;100.00;101764.25;5072980;28;20059;-63
2021/06/26 01:32:33;;;;;;;81.30;59.20;;;;;;;13.69;100.00;101774.88;5072542;28;20052;-63
2021/06/26 01:34:58;;;;;;;87.85;63.47;;;;;;;13.73;100.00;101776.69;5072641;28;20099;-63
2021/06/26 01:37:24;;;;;;;89.38;62.08;;;;;;;13.71;100.00;101774.88;5072803;28;20456;-64
2021/06/26 01:39:49;;;;;;;90.88;65.30;;;;;;;13.71;100.00;101772.22;5072576;28;20032;-63
2021/06/26 01:42:15;;;;;;;86.57;63.60;;;;;;;13.75;100.00;101766.94;5072691;28;20043;-62
2021/06/26 01:44:40;;;;;;;84.45;63.22;;;;;;;13.78;100.00;101768.72;5072551;28;20109;-63
2021/06/26 01:47:07;;;;;;;80.80;59.50;;;;;;;13.78;100.00;101766.06;5072546;28;20102;-63
2021/06/26 01:49:34;;;;;;;86.63;60.30;;;;;;;13.79;100.00;101754.56;5072553;28;20146;-61
2021/06/26 01:51:59;;;;;;;81.80;57.55;;;;;;;13.80;100.00;101758.97;5072513;28;20464;-63
2021/06/26 01:54:25;;;;;;;77.40;57.42;;;;;;;13.80;100.00;101763.41;5072397;28;20109;-63
2021/06/26 01:56:50;;;;;;;84.57;60.97;;;;;;;13.82;100.00;101764.31;5072517;28;20028;-63
2021/06/26 01:59:16;;;;;;;78.60;58.47;;;;;;;13.83;100.00;101769.63;5072579;28;20033;-61
2021/06/26 02:01:41;;;;;;;78.90;58.08;;;;;;;13.83;100.00;101776.72;5072712;28;20012;-60
2021/06/26 02:04:06;;;;;;;74.85;55.72;;;;;;;13.85;100.00;101770.53;5072784;28;20107;-61
2021/06/26 02:06:32;;;;;;;76.88;56.53;;;;;;;13.84;100.00;101773.19;5072545;28;20356;-63
2021/06/26 02:08:57;;;;;;;73.13;53.63;;;;;;;13.83;100.00;101774.94;5072367;28;20544;-63
2021/06/26 02:11:23;;;;;;;74.70;53.75;;;;;;;13.83;100.00;101776.72;5072625;28;20108;-61
2021/06/26 02:13:48;;;;;;;72.45;52.60;;;;;;;13.86;100.00;101774.06;5075527;28;20036;-61
2021/06/26 02:16:14;;;;;;;76.93;52.28;;;;;;;13.88;100.00;101781.19;5076444;28;20371;-63
2021/06/26 02:18:39;;;;;;;72.72;51.55;;;;;;;13.88;100.00;101772.34;5076618;28;20032;-63
2021/06/26 02:21:06;;;;;;;71.25;51.35;;;;;;;13.87;100.00;101767.88;5076184;28;20025;-68
2021/06/26 02:23:32;;;;;;;71.43;50.50;;;;;;;13.90;100.00;101768.78;5076534;28;20027;-71
2021/06/26 02:25:57;;;;;;;67.25;48.83;;;;;;;13.91;100.00;101782.97;5076738;28;20024;-70
2021/06/26 02:28:22;;;;;;;65.00;46.67;;;;;;;13.91;100.00;101775.88;5076317;28;20025;-70
2021/06/26 02:30:48;;;;;;;65.80;46.78;;;;;;;13.92;100.00;101782.06;5076469;28;20040;-70
2021/06/26 02:33:13;;;;;;;65.22;46.20;;;;;;;13.90;100.00;101783.84;5076069;28;20054;-70
2021/06/26 02:35:38;;;;;;;60.78;45.08;;;;;;;13.92;100.00;101782.97;5075828;28;20032;-70
2021/06/26 02:38:04;;;;;;;60.50;45.30;;;;;;;13.90;100.00;101774.09;5076250;28;20028;-70
2021/06/26 02:40:31;;;;;;;60.80;44.40;;;;;;;13.90;100.00;101774.09;5075950;28;20031;-68
2021/06/26 02:42:57;;;;;;;63.25;44.80;;;;;;;13.93;100.00;101771.44;5075889;28;20530;-64
2021/06/26 02:45:22;;;;;;;61.65;45.30;;;;;;;13.94;100.00;101770.56;5076141;28;20103;-65
2021/06/26 02:47:47;;;;;;;64.25;45.47;;;;;;;13.92;100.00;101769.69;5075561;28;20053;-71
2021/06/26 02:50:13;;;;;;;63.97;46.00;;;;;;;13.90;100.00;101774.09;5075702;28;20109;-70
2021/06/26 02:52:39;;;;;;;64.72;47.67;;;;;;;13.89;100.00;101769.69;5075732;28;20063;-64
2021/06/26 02:55:05;;;;;;;72.40;49.70;;;;;;;13.86;100.00;101771.41;5075690;28;20467;-63
2021/06/26 02:57:31;;;;;;;66.93;48.08;;;;;;;13.83;100.00;101766.09;5073818;28;20043;-65
2021/06/26 02:59:57;;;;;;;67.30;47.95;;;;;;;13.82;100.00;101767.88;5075725;28;20020;-70
2021/06/26 03:02:23;;;;;;;70.32;48.63;;;;;;;13.83;100.00;101772.28;5075735;28;20150;-69
2021/06/26 03:04:48;;;;;;;68.55;48.97;;;;;;;13.84;100.00;101776.72;5075459;28;20428;-69
2021/06/26 03:07:13;;;;;;;68.47;48.72;;;;;;;13.85;100.00;101778.50;5075351;28;20037;-65
2021/06/26 03:09:39;;;;;;;66.35;47.85;;;;;;;13.84;100.00;101776.72;5075323;28;20025;-69
2021/06/26 03:12:05;;;;;;;70.07;50.20;;;;;;;13.84;100.00;101768.75;5075841;28;20027;-69
2021/06/26 03:14:31;;;;;;;70.93;49.00;;;;;;;13.88;100.00;101775.88;5075178;28;20035;-69
2021/06/26 03:16:56;;;;;;;67.88;48.75;;;;;;;13.89;100.00;101774.09;5075349;28;20024;-69
2021/06/26 03:19:21;;;;;;;75.05;50.50;;;;;;;13.88;100.00;101769.66;5075458;28;20040;-68
2021/06/26 03:21:47;;;;;;;68.90;49.05;;;;;;;13.90;100.00;101771.44;5075158;28;20550;-69
2021/06/26 03:24:12;;;;;;;68.00;48.47;;;;;;;13.92;100.00;101766.13;5075111;28;20033;-69
2021/06/26 03:26:38;;;;;;;72.53;51.45;;;;;;;13.92;100.00;101764.38;5075373;28;20067;-69
2021/06/26 03:29:04;;;;;;;70.40;49.55;;;;;;;13.95;100.00;101764.38;5075334;28;20021;-69
2021/06/26 03:31:30;;;;;;;69.40;48.65;;;;;;;13.93;100.00;101765.25;5074963;28;20139;-69
2021/06/26 03:33:55;;;;;;;69.82;49.67;;;;;;;13.94;100.00;101759.94;5075113;28;20040;-69
2021/06/26 03:36:20;;;;;;;70.22;49.85;;;;;;;13.93;100.00;101765.25;5075096;28;20017;-68
2021/06/26 03:38:46;;;;;;;68.03;48.25;;;;;;;13.97;100.00;101766.19;5074808;28;20024;-69
2021/06/26 03:41:11;;;;;;;71.82;49.83;;;;;;;13.94;100.00;101770.56;5075026;28;20055;-69
2021/06/26 03:43:37;;;;;;;71.97;50.78;;;;;;;13.98;100.00;101774.16;5074992;28;20103;-69
2021/06/26 03:46:02;;;;;;;70.90;50.25;;;;;;;13.99;100.00;101773.25;5075060;28;20436;-69
2021/06/26 03:48:28;;;;;;;71.93;50.90;;;;;;;14.01;100.00;101781.22;5074907;28;20128;-68
2021/06/26 03:50:56;;;;;;;72.45;50.67;;;;;;;14.01;100.00;101782.13;5074703;28;20028;-69
2021/06/26 03:53:22;;;;;;;70.25;49.75;;;;;;;14.04;100.00;101771.50;5074538;28;20390;-69
2021/06/26 03:55:53;;;;;;;69.35;48.38;;;;;;;14.09;100.00;101776.84;5074938;28;20115;-69
2021/06/26 03:58:27;;;;;;;70.93;50.72;;;;;;;14.08;100.00;101775.06;5070890;28;20479;-69
2021/06/26 04:00:56;;;;;;;71.10;51.10;;;;;;;14.10;100.00;101781.28;5071271;28;20020;-69
2021/06/26 04:03:23;;;;;;;71.85;50.83;;;;;;;14.10;100.00;101782.16;5075008;28;20025;-69
2021/06/26 04:05:49;;;;;;;73.25;50.47;;;;;;;14.13;100.00;101782.19;5074398;28;20468;-63
2021/06/26 04:08:14;;;;;;;73.22;50.55;;;;;;;14.11;100.00;101783.97;5074154;28;20053;-61
2021/06/26 04:10:41;;;;;;;71.15;50.55;;;;;;;14.15;100.00;101779.53;5074592;28;20356;-61
2021/06/26 04:13:07;;;;;;;70.45;50.67;;;;;;;14.17;100.00;101779.53;5074240;28;20087;-61
2021/06/26 04:15:33;;;;;;;67.90;49.67;;;;;;;14.16;100.00;101780.44;5074276;28;20478;-60
2021/06/26 04:17:59;;;;;;;69.65;50.58;;;;;;;14.19;100.00;101780.44;5074344;28;20060;-61
2021/06/26 04:20:25;;;;;;;69.65;49.67;;;;;;;14.20;100.00;101785.78;5074073;28;20112;-61
2021/06/26 04:22:50;;;;;;;74.95;50.70;;;;;;;14.23;100.00;101785.78;5074499;28;20029;-61
2021/06/26 04:25:17;;;;;;;75.38;51.40;;;;;;;14.26;100.00;101787.56;5074366;28;20394;-62
2021/06/26 04:27:43;;;;;;;74.95;52.17;;;;;;;14.24;100.00;101787.56;5073979;28;20096;-61
2021/06/26 04:30:09;;;;;;;77.85;51.88;;;;;;;14.27;100.00;101789.31;5072209;28;20032;-63
2021/06/26 04:32:37;;;;;;;72.97;52.13;;;;;;;14.23;100.00;101783.13;5073932;28;20017;-61
2021/06/26 04:35:08;;;;;;;77.65;53.55;;;;;;;14.24;100.00;101779.59;5073287;28;20090;-61
2021/06/26 04:37:34;;;;;;;75.97;53.72;;;;;;;14.25;100.00;101785.78;5073699;28;20016;-63
2021/06/26 04:40:00;;;;;;;80.55;54.40;;;;;;;14.27;100.00;101784.00;5073880;28;20025;-63
2021/06/26 04:42:25;;;;;;;80.15;56.30;;;;;;;14.24;100.00;101779.59;5073798;28;20036;-63
2021/06/26 04:44:50;;;;;;;82.63;56.53;;;;;;;14.30;100.00;101779.59;5073602;28;20146;-63
2021/06/26 04:47:16;;;;;;;80.65;56.92;;;;;;;14.33;100.00;101780.47;5073863;28;20082;-61
2021/06/26 04:49:42;;;;;;;79.70;56.90;;;;;;;14.41;100.00;101787.59;5073360;28;20044;-61
2021/06/26 04:52:08;;;;;;;80.95;56.47;;;;;;;14.37;100.00;101784.94;5073369;28;20430;-61
2021/06/26 04:54:34;;;;;;;81.07;56.45;;;;;;;14.34;100.00;101785.81;5073683;28;20383;-62
2021/06/26 04:57:00;;;;;;;82.28;58.78;;;;;;;14.36;100.00;101788.47;5073583;28;20021;-64
2021/06/26 04:59:25;;;;;;;82.93;58.60;;;;;;;14.37;100.00;101790.25;5073371;28;20043;-61
2021/06/26 05:01:50;;;;;;;85.43;58.42;;;;;;;14.39;100.00;101786.72;5073715;28;20020;-61
2021/06/26 05:04:16;;;;;;;88.55;59.78;;;;;;;14.43;100.00;101792.94;5073253;28;20021;-64
2021/06/26 05:06:41;;;;;;;82.10;59.80;;;;;;;14.51;100.00;101791.19;5073671;28;20146;-61
2021/06/26 05:09:06;;;;;;;82.75;59.10;;;;;;;14.58;100.00;101785.00;5072913;28;20021;-60
2021/06/26 05:11:32;;;;;;;80.53;58.25;;;;;;;14.67;100.00;101784.19;5073194;28;20020;-63
2021/06/26 05:13:57;;;;;;;84.65;59.40;;;;;;;14.75;100.00;101786.84;5073103;28;20112;-61
2021/06/26 05:16:23;;;;;;;77.10;55.85;;;;;;;14.81;100.00;101786.88;5073155;28;20025;-62
2021/06/26 05:18:48;;;;;;;80.15;57.45;;;;;;;14.86;100.00;101779.78;5073003;28;20036;-61
2021/06/26 05:21:13;;;;;;;80.07;58.50;;;;;;;14.94;100.00;101780.69;5073037;28;20379;-64
2021/06/26 05:23:39;;;;;;;79.05;57.55;;;;;;;15.02;100.00;101787.78;5072835;28;20027;-61
2021/06/26 05:26:04;;;;;;;77.15;56.15;;;;;;;15.08;100.00;101785.13;5072823;28;20028;-66
2021/06/26 05:28:31;;;;;;;74.07;55.45;;;;;;;15.15;100.00;101782.44;5073185;28;20094;-61
2021/06/26 05:30:56;;;;;;;72.70;53.33;;;;;;;15.27;100.00;101786.88;5072634;28;20050;-68
2021/06/26 05:33:21;;;;;;;72.85;53.28;;;;;;;15.47;100.00;101783.34;5072650;28;20032;-62
2021/06/26 05:35:49;;;;;;;70.72;53.13;;;;;;;15.70;100.00;101783.31;5068861;28;20024;-61
2021/06/26 05:38:15;;;;;;;69.47;51.08;;;;;;;15.93;100.00;101783.28;5067336;28;20426;-63
2021/06/26 05:40:40;;;;;;;59.15;46.67;;;;;;;16.07;100.00;101785.88;5072812;28;20028;-61
2021/06/26 05:43:05;;;;;;;58.92;45.50;;;;;;;16.21;100.00;101784.06;5072773;28;20028;-62
2021/06/26 05:45:31;;;;;;;57.75;44.22;;;;;;;16.34;100.00;101776.03;5072635;28;20081;-62
2021/06/26 05:47:56;;;;;;;55.28;42.33;;;;;;;16.37;100.00;101787.56;5071591;28;20187;-62
2021/06/26 05:50:22;;;;;;;57.40;43.78;;;;;;;16.46;100.00;101788.41;5072559;28;20025;-65
2021/06/26 05:52:49;;;;;;;56.33;42.00;;;;;;;16.53;100.00;101785.69;5068431;28;20028;-63
2021/06/26 05:55:15;;;;;;;54.55;43.25;;;;;;;16.66;100.00;101782.94;5072434;28;20062;-61
2021/06/26 05:57:42;;;;;;;53.97;42.47;;;;;;;16.78;100.00;101784.66;5072620;28;20077;-61
2021/06/26 06:00:08;;;;;;;53.60;41.47;;;;;;;16.79;100.00;101792.66;5072471;28;20113;-63
2021/06/26 06:02:33;;;;;;;55.05;42.75;;;;;;;16.86;100.00;101788.16;5072639;28;20029;-61
2021/06/26 06:04:58;;;;;;;54.28;43.83;;;;;;;17.01;100.00;101790.75;5072108;28;20107;-61
2021/06/26 06:07:24;;;;;;;53.10;40.58;;;;;;;17.12;100.00;101784.44;5072437;28;20108;-61
2021/06/26 06:09:49;;;;;;;54.00;40.33;;;;;;;17.22;100.00;101781.66;5072260;28;20107;-61
2021/06/26 06:12:14;;;;;;;51.78;39.38;;;;;;;17.32;100.00;101779.81;5070703;28;20121;-63
2021/06/26 06:14:39;;;;;;;52.55;40.58;;;;;;;17.41;100.00;101785.06;5066898;28;20119;-61
2021/06/26 06:17:05;;;;;;;52.25;37.53;;;;;;;17.43;100.00;101780.59;5070798;28;20094;-60
2021/06/26 06:19:30;;;;;;;48.75;36.47;;;;;;;17.42;100.00;101778.81;5070900;28;20025;-61
2021/06/26 06:21:56;;;;;;;47.45;36.60;;;;;;;17.42;100.00;101778.81;5070643;28;20108;-61
2021/06/26 06:24:21;;;;;;;49.50;37.08;;;;;;;17.39;100.00;101778.88;5071038;28;20016;-62
2021/06/26 06:26:46;;;;;;;50.00;38.08;;;;;;;17.36;100.00;101786.03;5070753;28;20035;-60
2021/06/26 06:29:12;;;;;;;49.28;36.38;;;;;;;17.30;100.00;101781.63;5070255;28;20368;-61
2021/06/26 06:31:37;;;;;;;45.13;34.42;;;;;;;17.25;98.99;101781.63;5071422;28;20025;-61
2021/06/26 06:34:03;;;;;;;45.17;31.98;;;;;;;17.23;96.07;101790.59;5069926;28;20029;-61
2021/06/26 06:36:28;;;;;;;44.08;33.20;;;;;;;17.19;96.82;101787.03;5070905;28;20055;-61
2021/06/26 06:38:53;;;;;;;45.60;33.40;;;;;;;17.21;98.29;101787.94;5069985;28;20032;-62
2021/06/26 06:41:19;;;;;;;46.47;34.85;;;;;;;17.27;100.00;101795.03;5070438;28;20095;-62
2021/06/26 06:43:44;;;;;;;44.05;32.38;;;;;;;17.29;97.57;101793.22;5070786;28;20475;-61
2021/06/26 06:46:09;;;;;;;44.15;33.20;;;;;;;17.32;97.21;101786.97;5051312;28;20124;-63
2021/06/26 06:48:35;;;;;;;44.05;32.95;;;;;;;17.32;97.50;101789.63;5069898;28;20139;-61
2021/06/26 06:51:00;;;;;;;44.80;33.80;;;;;;;17.33;97.29;101781.59;5070452;28;20060;-61
2021/06/26 06:53:25;;;;;;;47.85;36.28;;;;;;;17.39;97.85;101778.88;5070114;28;20029;-60
2021/06/26 06:55:51;;;;;;;45.30;33.72;;;;;;;17.47;99.56;101785.91;5070474;28;20024;-61
2021/06/26 06:58:20;;;;;;;45.78;35.17;;;;;;;17.50;96.43;101785.88;5069896;28;20025;-61
2021/06/26 07:00:46;;;;;;;47.42;36.08;;;;;;;17.52;92.85;101784.97;5073384;28;20067;-61
2021/06/26 07:03:12;;;;;;;46.65;35.60;;;;;;;17.56;93.56;101791.16;5073913;28;20410;-60
2021/06/26 07:05:38;;;;;;;46.85;34.95;;;;;;;17.62;93.10;101785.78;5068007;28;20025;-61
2021/06/26 07:08:03;;;;;;;46.65;34.50;;;;;;;17.69;89.12;101797.28;5072148;28;20471;-61
2021/06/26 07:10:29;;;;;;;48.13;36.47;;;;;;;17.74;89.79;101796.34;5073886;28;20025;-61
2021/06/26 07:12:54;;;;;;;48.25;35.22;;;;;;;17.77;88.28;101792.75;5071574;28;20016;-62
2021/06/26 07:15:20;;;;;;;47.63;36.72;;;;;;;17.83;88.17;101794.47;5072620;28;20557;-62
2021/06/26 07:17:45;;;;;;;49.28;37.15;;;;;;;17.90;89.40;101788.19;5072842;28;20067;-62
2021/06/26 07:20:11;;;;;;;50.92;37.75;;;;;;;17.92;87.08;101791.72;5073727;28;20032;-62
2021/06/26 07:22:36;;;;;;;49.75;38.22;;;;;;;18.03;89.85;101799.66;5073930;28;20028;-64
2021/06/26 07:25:02;;;;;;;48.25;37.17;;;;;;;18.20;89.04;101788.72;5073139;28;20052;-63
2021/06/26 07:27:27;;;;;;;49.15;37.60;;;;;;;18.27;85.03;101785.94;5073341;28;20021;-63
2021/06/26 07:29:53;;;;;;;50.53;37.85;;;;;;;18.33;84.47;101790.31;5074379;28;20100;-65
2021/06/26 07:32:18;;;;;;;52.85;39.65;;;;;;;18.45;83.57;101795.53;5075062;28;20058;-64
2021/06/26 07:34:43;;;;;;;53.00;39.58;;;;;;;18.60;85.11;101791.75;5074673;28;20474;-64
2021/06/26 07:37:09;;;;;;;51.20;38.05;;;;;;;18.71;82.54;101794.28;5074789;28;20028;-63
2021/06/26 07:39:34;;;;;;;50.13;39.08;;;;;;;18.78;83.02;101787.91;5074636;28;20463;-63
2021/06/26 07:42:00;;;;;;;51.70;39.15;;;;;;;18.91;82.29;101794.00;5074569;28;20028;-63
2021/06/26 07:44:25;;;;;;;49.22;37.33;;;;;;;18.99;78.81;101780.50;5074074;28;20029;-65
2021/06/26 07:46:51;;;;;;;51.70;39.20;;;;;;;19.06;79.26;101776.81;5073533;28;20016;-64
2021/06/26 07:49:16;;;;;;;51.35;39.35;;;;;;;19.12;79.29;101781.16;5074527;28;20055;-63
2021/06/26 07:51:42;;;;;;;52.00;40.50;;;;;;;19.21;79.09;101780.13;5074460;28;20020;-63
2021/06/26 07:54:08;;;;;;;49.97;38.53;;;;;;;19.35;81.59;101775.41;5074645;28;20043;-64
2021/06/26 07:56:34;;;;;;;52.60;39.38;;;;;;;19.48;79.70;101773.41;5074512;28;20021;-62
2021/06/26 07:59:00;;;;;;;51.55;38.92;;;;;;;19.63;78.50;101773.16;5074590;28;20036;-65
2021/06/26 08:01:26;;;;;;;46.75;36.72;;;;;;;19.71;74.63;101778.34;5074724;28;20024;-64
2021/06/26 08:03:51;;;;;;;48.38;36.97;;;;;;;19.89;75.84;101778.94;5074654;28;20025;-65
2021/06/26 08:06:16;;;;;;;48.17;36.40;;;;;;;19.92;73.48;101769.06;5074502;28;20021;-65
2021/06/26 08:08:41;;;;;;;46.65;35.13;;;;;;;20.01;72.68;101771.53;5074296;28;20043;-66
2021/06/26 08:11:07;;;;;;;46.33;34.60;;;;;;;20.07;72.05;101770.53;5073444;28;20495;-67
2021/06/26 08:13:32;;;;;;;49.78;36.10;;;;;;;20.19;72.91;101770.25;5074206;28;20033;-67
2021/06/26 08:15:58;;;;;;;47.20;35.00;;;;;;;20.31;72.52;101766.41;5074118;28;20025;-67
2021/06/26 08:18:23;;;;;;;47.13;33.70;;;;;;;20.53;71.04;101772.22;5070079;28;20529;-67
2021/06/26 08:20:48;;;;;;;45.30;33.05;;;;;;;20.71;69.80;101776.31;5074351;28;20048;-68
2021/06/26 08:23:14;;;;;;;44.97;32.35;;;;;;;20.87;68.49;101773.28;5074150;28;20024;-67
2021/06/26 08:25:39;;;;;;;45.30;32.50;;;;;;;20.98;68.23;101770.31;5073923;28;20529;-67
2021/06/26 08:28:05;;;;;;;44.47;32.15;;;;;;;21.04;68.60;101768.38;5074188;28;20411;-67
2021/06/26 08:30:31;;;;;;;42.80;29.98;;;;;;;21.04;64.88;101764.78;5073840;28;20040;-67
2021/06/26 08:32:57;;;;;;;43.83;33.13;;;;;;;21.04;66.34;101768.38;5073819;28;20360;-62
2021/06/26 08:35:23;;;;;;;45.20;31.65;;;;;;;21.08;64.64;101766.47;5073789;28;20078;-64
2021/06/26 08:37:50;;;;;;;43.67;31.88;;;;;;;21.20;64.39;101773.34;5073940;28;20036;-63
2021/06/26 08:40:17;;;;;;;44.38;31.02;;;;;;;21.25;65.56;101766.94;5073776;28;20055;-63
2021/06/26 08:42:43;;;;;;;42.78;30.13;;;;;;;21.37;62.92;101764.84;5074094;28;20028;-65
2021/06/26 08:45:18;;;;;;;43.72;31.15;;;;;;;21.42;63.80;101768.28;5073331;28;20041;-64
2021/06/26 08:47:52;;;;;;;42.78;31.08;;;;;;;21.52;63.17;101775.25;5073276;28;20025;-63
2021/06/26 08:50:20;;;;;;;41.83;31.00;;;;;;;21.72;63.52;101769.28;5073708;28;20063;-64
2021/06/26 08:52:46;;;;;;;42.17;31.33;;;;;;;21.88;62.22;101771.56;5072109;28;20513;-65
2021/06/26 08:55:12;;;;;;;43.00;30.70;;;;;;;21.99;60.71;101766.75;5073345;28;20501;-63
2021/06/26 08:57:43;;;;;;;42.13;30.10;;;;;;;22.04;61.87;101772.00;5073484;28;20031;-64
2021/06/26 09:00:15;;;;;;;43.55;30.20;;;;;;;22.07;58.50;101771.91;5071119;28;20725;-63
2021/06/26 09:02:40;;;;;;;42.28;29.80;;;;;;;22.15;57.60;101764.50;5068265;28;20391;-63
2021/06/26 09:05:07;;;;;;;41.72;28.52;;;;;;;22.13;57.44;101770.84;5073037;28;20025;-64
2021/06/26 09:07:36;;;;;;;39.63;27.33;;;;;;;22.26;57.14;101772.25;5072763;28;20036;-64
2021/06/26 09:10:22;;;;;;;40.15;27.55;;;;;;;22.49;56.50;101778.81;5072582;28;20029;-63
2021/06/26 09:12:56;;;;;;;39.20;27.10;;;;;;;22.68;57.05;101771.88;5071357;28;20115;-66
2021/06/26 09:15:27;;;;;;;38.33;26.58;;;;;;;22.77;55.94;101773.41;5072938;28;20352;-64
2021/06/26 09:17:54;;;;;;;39.35;28.60;;;;;;;22.84;56.47;101769.59;5072844;28;20021;-63
2021/06/26 09:20:23;;;;;;;38.47;27.92;;;;;;;23.07;56.44;101770.66;5073049;28;20396;-64
2021/06/26 09:22:54;;;;;;;39.20;27.77;;;;;;;23.36;55.39;101764.28;5071153;28;20392;-63
2021/06/26 09:25:23;;;;;;;41.53;28.35;;;;;;;23.68;55.45;101763.13;5072918;28;20029;-64
2021/06/26 09:27:48;;;;;;;40.15;26.85;;;;;;;23.90;53.42;101764.22;5073205;28;20403;-66
2021/06/26 09:30:14;;;;;;;39.45;27.15;;;;;;;24.12;51.09;101777.78;5072629;28;20040;-65
2021/06/26 09:32:48;;;;;;;39.08;25.90;;;;;;;24.34;51.57;101776.00;5072828;28;20028;-64
2021/06/26 09:35:17;;;;;;;36.55;25.90;;;;;;;24.76;49.98;101776.25;5069584;28;20032;-65
2021/06/26 09:37:42;;;;;;;38.83;25.58;;;;;;;24.99;50.36;101780.66;5072502;28;20035;-66
2021/06/26 09:40:11;;;;;;;37.13;26.20;;;;;;;24.97;47.84;101771.75;5072671;28;20028;-65
2021/06/26 09:42:38;;;;;;;32.22;21.48;;;;;;;24.74;46.29;101776.28;5068556;28;20024;-64
2021/06/26 09:45:10;;;;;;;35.10;23.95;;;;;;;24.95;49.41;101766.41;5072894;28;20024;-63
2021/06/26 09:47:36;;;;;;;39.00;25.55;;;;;;;25.18;46.57;101775.41;5068579;28;20497;-65
2021/06/26 09:50:11;;;;;;;38.08;27.25;;;;;;;25.07;48.82;101767.72;5072204;28;20068;-64
2021/06/26 09:52:48;;;;;;;37.15;24.23;;;;;;;25.29;48.57;101775.78;5068798;28;20126;-66
2021/06/26 09:55:18;;;;;;;35.63;24.48;;;;;;;25.98;47.64;101776.41;5068359;28;20093;-64
2021/06/26 09:57:44;;;;;;;36.72;23.83;;;;;;;25.93;44.96;101776.63;5072172;28;20029;-66
2021/06/26 10:00:10;;;;;;;36.20;24.00;;;;;;;25.78;44.60;101775.50;5072427;28;20066;-65
2021/06/26 10:02:36;;;;;;;36.28;25.00;;;;;;;25.77;45.50;101778.28;5072553;28;20025;-63
2021/06/26 10:05:02;;;;;;;35.10;23.38;;;;;;;26.42;45.70;101781.63;5070780;28;20032;-64
2021/06/26 10:07:33;;;;;;;36.22;23.23;;;;;;;26.98;42.58;101770.81;5072471;28;20048;-64
2021/06/26 10:09:59;;;;;;;35.17;23.35;;;;;;;27.26;41.64;101778.41;5072746;28;20079;-64
2021/06/26 10:12:26;;;;;;;33.88;23.67;;;;;;;27.19;40.25;101771.53;5072346;28;20116;-64
2021/06/26 10:14:53;;;;;;;34.53;22.58;;;;;;;26.92;42.15;101775.59;5072338;28;20434;-65
2021/06/26 10:17:20;;;;;;;34.25;22.25;;;;;;;26.70;43.25;101770.34;5072441;28;20426;-65
2021/06/26 10:19:47;;;;;;;30.92;19.75;;;;;;;26.67;40.95;101775.91;5072055;28;20078;-65
2021/06/26 10:22:12;;;;;;;31.35;19.00;;;;;;;26.36;41.51;101779.22;5072267;28;20029;-64
2021/06/26 10:24:42;;;;;;;30.27;18.40;;;;;;;26.44;42.18;101783.31;5072470;28;20115;-63
2021/06/26 10:27:15;;;;;;;30.35;18.02;;;;;;;26.37;44.43;101779.16;5068289;28;20146;-66
2021/06/26 10:29:41;;;;;;;29.73;18.33;;;;;;;26.54;41.00;101770.19;5068730;28;20029;-64
2021/06/26 10:32:12;;;;;;;30.15;19.58;;;;;;;26.51;40.96;101772.19;5072515;28;20025;-64
2021/06/26 10:34:47;;;;;;;30.35;18.83;;;;;;;26.73;41.35;101770.19;5070639;28;20028;-65
2021/06/26 10:37:21;;;;;;;31.98;20.17;;;;;;;26.76;42.58;101764.63;5073041;28;20124;-66
2021/06/26 10:40:00;;;;;;;31.17;19.27;;;;;;;26.17;42.59;101776.47;5076198;28;20433;-68
2021/06/26 10:42:32;;;;;;;30.95;18.38;;;;;;;26.07;42.63;101781.47;5075851;28;20062;-64
2021/06/26 10:44:58;;;;;;;32.22;19.30;;;;;;;26.43;39.60;101776.13;5075888;28;20181;-66
2021/06/26 10:47:37;;;;;;;30.65;19.25;;;;;;;26.77;42.18;101760.97;5076341;28;20431;-65
2021/06/26 10:50:19;;;;;;;27.92;17.42;;;;;;;27.55;40.42;101762.50;5075615;28;20032;-65
2021/06/26 10:52:50;;;;;;;28.35;17.17;;;;;;;28.29;38.44;101769.38;5073040;28;20037;-68
2021/06/26 10:55:29;;;;;;;28.02;16.65;;;;;;;29.54;35.13;101759.41;5075934;28;20044;-66
2021/06/26 10:57:55;;;;;;;27.63;16.40;;;;;;;30.35;34.00;101774.34;5075703;28;20048;-64
2021/06/26 11:00:34;;;;;;;28.92;18.48;;;;;;;30.84;35.18;101768.41;5075779;28;20035;-68